Thursday, September 20, 2018, 4:46 PM EDT
Back to Local

KLOM, Philadelphia, Wings Field Airport

Location: Blue Bell, PA, United States Lat: 40.138
Local Time: 4:46 PM EDT (20:46 GMT) Lon: -75.265
Time Zone: US/Eastern Elev: 301 ft

Show me the last for .
Show Decoded

2018-09-20 16:15 METAR KLOM 202015Z AUTO 11003KT 10SM OVC026 21/17 A3022 RMK AO1 =
2018-09-20 15:55 METAR KLOM 201955Z AUTO 11004KT 10SM OVC023 21/17 A3022 RMK AO1 =
2018-09-20 15:35 METAR KLOM 201935Z AUTO 11007KT 10SM OVC025 21/17 A3022 RMK AO1 =
2018-09-20 15:15 METAR KLOM 201915Z AUTO 12004KT 10SM SCT023 BKN028 OVC050 22/17 A3022 RMK AO1 =
2018-09-20 14:55 METAR KLOM 201855Z AUTO 11004KT 10SM OVC025 21/17 A3022 RMK AO1 =
2018-09-20 14:35 METAR KLOM 201835Z AUTO 12004KT 10SM OVC025 21/17 A3022 RMK AO1 =
2018-09-20 14:15 METAR KLOM 201815Z AUTO 10004KT 10SM OVC023 21/17 A3023 RMK AO1 =
2018-09-20 13:55 METAR KLOM 201755Z AUTO 00000KT 10SM OVC023 21/17 A3023 RMK AO1 =
2018-09-20 13:35 METAR KLOM 201735Z AUTO 09004KT 10SM OVC021 21/17 A3023 RMK AO1 =
2018-09-20 13:15 METAR KLOM 201715Z AUTO 10006KT 10SM OVC021 21/17 A3024 RMK AO1 =
2018-09-20 12:55 METAR KLOM 201655Z AUTO 10004KT 10SM OVC021 21/17 A3024 RMK AO1 =
2018-09-20 12:35 METAR KLOM 201635Z AUTO 11003KT 10SM OVC019 20/17 A3025 RMK AO1 =
2018-09-20 12:15 METAR KLOM 201615Z AUTO 11003KT 10SM BKN019 BKN024 OVC028 20/17 A3025 RMK AO1 =
2018-09-20 11:55 METAR KLOM 201555Z AUTO 09003KT 10SM OVC020 20/17 A3025 RMK AO1 =
2018-09-20 11:35 METAR KLOM 201535Z AUTO 00000KT 10SM OVC018 20/17 A3024 RMK AO1 =
2018-09-20 11:15 METAR KLOM 201515Z AUTO 13003KT 10SM OVC016 19/17 A3025 RMK AO1 =
2018-09-20 10:55 METAR KLOM 201455Z AUTO 11003KT 10SM OVC014 20/17 A3025 RMK AO1 =
2018-09-20 10:35 METAR KLOM 201435Z AUTO 10004KT 10SM OVC014 19/17 A3024 RMK AO1 =
2018-09-20 10:15 METAR KLOM 201415Z AUTO 09004KT 10SM OVC014 18/17 A3024 RMK AO1 =
2018-09-20 09:55 METAR KLOM 201355Z AUTO 12003KT 10SM OVC014 18/17 A3024 RMK AO1 =
2018-09-20 09:35 METAR KLOM 201335Z AUTO 10004KT 10SM OVC014 18/17 A3023 RMK AO1 =
2018-09-20 09:15 METAR KLOM 201315Z AUTO 10003KT 10SM OVC014 18/17 A3022 RMK AO1 =
2018-09-20 08:55 METAR KLOM 201255Z AUTO 13004KT 7SM OVC012 17/17 A3022 RMK AO1 =
2018-09-20 08:35 METAR KLOM 201235Z AUTO 13004KT 5SM OVC010 17/17 A3021 RMK AO1 =
2018-09-20 08:15 METAR KLOM 201215Z AUTO 09007KT 10SM OVC010 18/17 A3019 RMK AO1 =
2018-09-20 07:55 METAR KLOM 201155Z AUTO 10005KT 10SM OVC010 18/17 A3019 RMK AO1 =
2018-09-20 07:35 METAR KLOM 201135Z AUTO 09003KT 10SM OVC010 18/18 A3018 RMK AO1 =
2018-09-20 07:15 METAR KLOM 201115Z AUTO 00000KT 10SM OVC012 18/18 A3018 RMK AO1 =
2018-09-20 06:55 METAR KLOM 201055Z AUTO 00000KT 10SM OVC010 18/18 A3017 RMK AO1 =
2018-09-20 06:35 METAR KLOM 201035Z AUTO 11004KT 10SM OVC010 18/18 A3016 RMK AO1 =
2018-09-20 06:15 METAR KLOM 201015Z AUTO 00000KT 10SM BKN010 OVC013 18/18 A3014 RMK AO1 =
2018-09-20 05:55 METAR KLOM 200955Z AUTO 00000KT 10SM OVC013 18/18 A3013 RMK AO1 =
2018-09-20 05:35 METAR KLOM 200935Z AUTO 12004KT 10SM BKN011 OVC018 18/18 A3011 RMK AO1 =
2018-09-20 05:15 METAR KLOM 200915Z AUTO 00000KT 10SM SCT011 BKN018 OVC029 18/18 A3011 RMK AO1 =
2018-09-20 04:55 METAR KLOM 200855Z AUTO 00000KT 10SM BKN009 OVC016 18/18 A3010 RMK AO1 =
2018-09-20 04:35 METAR KLOM 200835Z AUTO 00000KT 4SM BKN009 OVC014 18/18 A3010 RMK AO1 =
2018-09-20 04:15 METAR KLOM 200815Z AUTO 00000KT 5SM OVC012 18/18 A3010 RMK AO1 =
2018-09-20 03:55 METAR KLOM 200755Z AUTO 00000KT 5SM BKN012 OVC019 18/18 A3009 RMK AO1 =
2018-09-20 03:35 METAR KLOM 200735Z AUTO 00000KT 4SM SCT010 BKN025 OVC032 18/18 A3009 RMK AO1 =
2018-09-20 03:15 METAR KLOM 200715Z AUTO 00000KT 4SM SCT020 BKN026 OVC032 18/18 A3009 RMK AO1 =
2018-09-20 02:55 METAR KLOM 200655Z AUTO 00000KT 4SM SCT010 BKN020 OVC030 17/17 A3009 RMK AO1 =
2018-09-20 02:35 METAR KLOM 200635Z AUTO 00000KT 1 1/4SM BKN010 BKN022 BKN030 17/17 A3008 RMK AO1
                 =
2018-09-20 02:15 METAR KLOM 200615Z AUTO 00000KT 1SM BKN010 BKN013 17/17 A3008 RMK AO1 =
2018-09-20 01:55 METAR KLOM 200555Z AUTO 00000KT 4SM SCT008 17/17 A3008 RMK AO1 =
2018-09-20 01:35 METAR KLOM 200535Z AUTO 00000KT 4SM CLR 17/17 A3008 RMK AO1 =
2018-09-20 01:15 METAR KLOM 200515Z AUTO 00000KT 7SM SCT010 SCT013 SCT027 17/17 A3008 RMK AO1 =
2018-09-20 00:55 METAR KLOM 200455Z AUTO 00000KT 7SM BKN008 BKN015 OVC029 18/18 A3008 RMK AO1 =
2018-09-20 00:35 METAR KLOM 200435Z AUTO 00000KT 10SM SCT008 SCT013 BKN022 17/17 A3008 RMK AO1 =
2018-09-20 00:15 METAR KLOM 200415Z AUTO 00000KT 10SM SCT014 SCT019 SCT024 17/17 A3007 RMK AO1 =
2018-09-19 23:55 METAR KLOM 200355Z AUTO 00000KT 10SM CLR 17/17 A3007 RMK AO1 =
2018-09-19 23:35 METAR KLOM 200335Z AUTO 00000KT 10SM SCT049 18/17 A3006 RMK AO1 =
2018-09-19 23:15 METAR KLOM 200315Z AUTO 00000KT 10SM BKN049 18/18 A3006 RMK AO1 =
2018-09-19 22:55 METAR KLOM 200255Z AUTO 00000KT 10SM SCT049 18/18 A3006 RMK AO1 =
2018-09-19 22:35 METAR KLOM 200235Z AUTO 10003KT 10SM CLR 20/17 A3005 RMK AO1 =
2018-09-19 22:15 METAR KLOM 200215Z AUTO 01003KT 10SM SCT050 20/17 A3004 RMK AO1 =
2018-09-19 21:55 METAR KLOM 200155Z AUTO 00000KT 10SM BKN050 21/17 A3004 RMK AO1 =
2018-09-19 21:35 METAR KLOM 200135Z AUTO 00000KT 10SM OVC050 20/18 A3004 RMK AO1 =
2018-09-19 21:15 METAR KLOM 200115Z AUTO 00000KT 10SM OVC048 20/18 A3003 RMK AO1 =
2018-09-19 20:55 METAR KLOM 200055Z AUTO 00000KT 10SM BKN048 19/19 A3002 RMK AO1 =
2018-09-19 20:35 METAR KLOM 200035Z AUTO 00000KT 10SM SCT048 18/18 A3001 RMK AO1 =
2018-09-19 20:15 METAR KLOM 200015Z AUTO 00000KT 10SM SCT046 18/18 A3000 RMK AO1 =
2018-09-19 19:55 METAR KLOM 192355Z AUTO 00000KT 10SM CLR 18/18 A2999 RMK AO1 =
2018-09-19 19:35 METAR KLOM 192335Z AUTO 00000KT 10SM CLR 19/19 A2999 RMK AO1 =
2018-09-19 19:15 METAR KLOM 192315Z AUTO 00000KT 10SM CLR 20/20 A2998 RMK AO1 =
2018-09-19 18:55 METAR KLOM 192255Z AUTO 00000KT 10SM CLR 21/20 A2997 RMK AO1 =
2018-09-19 18:35 METAR KLOM 192235Z AUTO 00000KT 10SM CLR 23/18 A2996 RMK AO1 =
2018-09-19 18:15 METAR KLOM 192215Z AUTO 00000KT 10SM CLR 25/17 A2997 RMK AO1 =
2018-09-19 17:55 METAR KLOM 192155Z AUTO 00000KT 10SM CLR 25/18 A2996 RMK AO1 =
2018-09-19 17:35 METAR KLOM 192135Z AUTO 32003KT 10SM CLR 26/17 A2996 RMK AO1 =
2018-09-19 17:15 METAR KLOM 192115Z AUTO 30005KT 10SM SCT110 26/17 A2995 RMK AO1 =
2018-09-19 16:55 METAR KLOM 192055Z AUTO 00000KT 10SM CLR 26/18 A2994 RMK AO1 =

Support USWX by starting your Amazon purchase here.